sensor_id;sensor_type;location;lat;lon;timestamp;P1;durP1;ratioP1;P2;durP2;ratioP2
9974;SDS011;5028;50.974;4.968;2023-07-02T00:00:33;14.87;;;10.07;;
9974;SDS011;5028;50.974;4.968;2023-07-02T00:03:05;15.00;;;10.13;;
9974;SDS011;5028;50.974;4.968;2023-07-02T00:05:35;15.83;;;10.07;;
9974;SDS011;5028;50.974;4.968;2023-07-02T00:08:04;15.10;;;10.20;;
9974;SDS011;5028;50.974;4.968;2023-07-02T00:10:34;14.37;;;10.27;;
9974;SDS011;5028;50.974;4.968;2023-07-02T00:13:03;13.97;;;10.33;;
9974;SDS011;5028;50.974;4.968;2023-07-02T00:15:31;15.63;;;10.67;;
9974;SDS011;5028;50.974;4.968;2023-07-02T00:17:59;14.43;;;9.93;;
9974;SDS011;5028;50.974;4.968;2023-07-02T00:20:28;14.67;;;10.53;;
9974;SDS011;5028;50.974;4.968;2023-07-02T00:23:02;15.93;;;11.03;;
9974;SDS011;5028;50.974;4.968;2023-07-02T00:25:31;16.40;;;11.13;;
9974;SDS011;5028;50.974;4.968;2023-07-02T00:27:59;18.50;;;11.13;;
9974;SDS011;5028;50.974;4.968;2023-07-02T00:30:28;16.03;;;11.03;;
9974;SDS011;5028;50.974;4.968;2023-07-02T00:32:57;14.20;;;11.00;;
9974;SDS011;5028;50.974;4.968;2023-07-02T00:35:26;17.50;;;11.50;;
9974;SDS011;5028;50.974;4.968;2023-07-02T00:37:54;18.57;;;11.67;;
9974;SDS011;5028;50.974;4.968;2023-07-02T00:40:26;16.93;;;11.63;;
9974;SDS011;5028;50.974;4.968;2023-07-02T00:42:55;19.23;;;11.77;;
9974;SDS011;5028;50.974;4.968;2023-07-02T00:45:24;21.40;;;11.90;;
9974;SDS011;5028;50.974;4.968;2023-07-02T00:47:53;17.07;;;11.73;;
9974;SDS011;5028;50.974;4.968;2023-07-02T00:50:23;16.27;;;11.80;;
9974;SDS011;5028;50.974;4.968;2023-07-02T00:52:52;19.17;;;12.13;;
9974;SDS011;5028;50.974;4.968;2023-07-02T00:55:22;17.17;;;12.17;;
9974;SDS011;5028;50.974;4.968;2023-07-02T00:57:52;18.97;;;12.47;;
9974;SDS011;5028;50.974;4.968;2023-07-02T01:00:23;21.07;;;12.13;;
9974;SDS011;5028;50.974;4.968;2023-07-02T01:02:55;19.03;;;12.80;;
9974;SDS011;5028;50.974;4.968;2023-07-02T01:05:26;18.87;;;12.33;;
9974;SDS011;5028;50.974;4.968;2023-07-02T01:08:02;19.73;;;12.33;;
9974;SDS011;5028;50.974;4.968;2023-07-02T01:10:31;19.73;;;12.70;;
9974;SDS011;5028;50.974;4.968;2023-07-02T01:13:04;21.03;;;12.77;;
9974;SDS011;5028;50.974;4.968;2023-07-02T01:15:38;24.03;;;13.67;;
9974;SDS011;5028;50.974;4.968;2023-07-02T01:18:07;18.63;;;12.83;;
9974;SDS011;5028;50.974;4.968;2023-07-02T01:20:38;20.13;;;12.93;;
9974;SDS011;5028;50.974;4.968;2023-07-02T01:23:07;18.13;;;13.03;;
9974;SDS011;5028;50.974;4.968;2023-07-02T01:25:37;21.47;;;12.47;;
9974;SDS011;5028;50.974;4.968;2023-07-02T01:28:05;16.23;;;13.23;;
9974;SDS011;5028;50.974;4.968;2023-07-02T01:30:34;19.43;;;13.70;;
9974;SDS011;5028;50.974;4.968;2023-07-02T01:33:06;18.03;;;13.67;;
9974;SDS011;5028;50.974;4.968;2023-07-02T01:35:35;19.10;;;13.67;;
9974;SDS011;5028;50.974;4.968;2023-07-02T01:38:05;19.93;;;14.00;;
9974;SDS011;5028;50.974;4.968;2023-07-02T01:40:34;20.97;;;13.40;;
9974;SDS011;5028;50.974;4.968;2023-07-02T01:43:02;21.17;;;13.80;;
9974;SDS011;5028;50.974;4.968;2023-07-02T01:45:31;22.47;;;14.20;;
9974;SDS011;5028;50.974;4.968;2023-07-02T01:48:00;21.13;;;14.47;;
9974;SDS011;5028;50.974;4.968;2023-07-02T01:50:28;22.13;;;14.50;;
9974;SDS011;5028;50.974;4.968;2023-07-02T01:52:57;24.17;;;14.77;;
9974;SDS011;5028;50.974;4.968;2023-07-02T01:55:28;19.90;;;13.83;;
9974;SDS011;5028;50.974;4.968;2023-07-02T01:57:56;19.73;;;14.43;;
9974;SDS011;5028;50.974;4.968;2023-07-02T02:00:25;22.20;;;15.00;;
9974;SDS011;5028;50.974;4.968;2023-07-02T02:02:53;21.93;;;14.37;;
9974;SDS011;5028;50.974;4.968;2023-07-02T02:05:22;23.17;;;15.30;;
9974;SDS011;5028;50.974;4.968;2023-07-02T02:07:51;19.77;;;14.73;;
9974;SDS011;5028;50.974;4.968;2023-07-02T02:10:20;23.00;;;15.10;;
9974;SDS011;5028;50.974;4.968;2023-07-02T02:12:51;21.50;;;15.23;;
9974;SDS011;5028;50.974;4.968;2023-07-02T02:15:19;23.17;;;15.10;;
9974;SDS011;5028;50.974;4.968;2023-07-02T02:17:48;25.33;;;15.20;;
9974;SDS011;5028;50.974;4.968;2023-07-02T02:20:18;23.10;;;15.30;;
9974;SDS011;5028;50.974;4.968;2023-07-02T02:22:47;27.10;;;15.63;;
9974;SDS011;5028;50.974;4.968;2023-07-02T02:25:15;26.13;;;16.53;;
9974;SDS011;5028;50.974;4.968;2023-07-02T02:27:44;24.50;;;16.00;;
9974;SDS011;5028;50.974;4.968;2023-07-02T02:30:14;23.30;;;15.50;;
9974;SDS011;5028;50.974;4.968;2023-07-02T02:32:43;21.47;;;15.57;;
9974;SDS011;5028;50.974;4.968;2023-07-02T02:35:12;23.17;;;16.07;;
9974;SDS011;5028;50.974;4.968;2023-07-02T02:37:41;24.10;;;16.10;;
9974;SDS011;5028;50.974;4.968;2023-07-02T02:40:10;27.33;;;16.10;;
9974;SDS011;5028;50.974;4.968;2023-07-02T02:42:40;20.87;;;15.30;;
9974;SDS011;5028;50.974;4.968;2023-07-02T02:45:08;22.17;;;15.27;;
9974;SDS011;5028;50.974;4.968;2023-07-02T02:47:39;22.97;;;15.77;;
9974;SDS011;5028;50.974;4.968;2023-07-02T02:50:08;25.00;;;15.87;;
9974;SDS011;5028;50.974;4.968;2023-07-02T02:52:37;24.27;;;16.57;;
9974;SDS011;5028;50.974;4.968;2023-07-02T02:55:06;22.27;;;15.40;;
9974;SDS011;5028;50.974;4.968;2023-07-02T02:57:35;25.70;;;16.37;;
9974;SDS011;5028;50.974;4.968;2023-07-02T03:00:04;25.53;;;16.23;;
9974;SDS011;5028;50.974;4.968;2023-07-02T03:02:35;26.87;;;17.00;;
9974;SDS011;5028;50.974;4.968;2023-07-02T03:05:07;25.37;;;16.60;;
9974;SDS011;5028;50.974;4.968;2023-07-02T03:07:36;26.97;;;16.83;;
9974;SDS011;5028;50.974;4.968;2023-07-02T03:10:05;27.30;;;17.17;;
9974;SDS011;5028;50.974;4.968;2023-07-02T03:12:35;22.83;;;16.57;;
9974;SDS011;5028;50.974;4.968;2023-07-02T03:15:04;25.10;;;16.77;;
9974;SDS011;5028;50.974;4.968;2023-07-02T03:17:36;28.20;;;16.90;;
9974;SDS011;5028;50.974;4.968;2023-07-02T03:20:07;26.40;;;16.97;;
9974;SDS011;5028;50.974;4.968;2023-07-02T03:22:36;26.17;;;17.37;;
9974;SDS011;5028;50.974;4.968;2023-07-02T03:25:05;24.73;;;16.60;;
9974;SDS011;5028;50.974;4.968;2023-07-02T03:27:35;24.80;;;17.10;;
9974;SDS011;5028;50.974;4.968;2023-07-02T03:30:04;25.87;;;17.30;;
9974;SDS011;5028;50.974;4.968;2023-07-02T03:32:33;26.37;;;17.13;;
9974;SDS011;5028;50.974;4.968;2023-07-02T03:35:01;26.57;;;16.97;;
9974;SDS011;5028;50.974;4.968;2023-07-02T03:37:32;24.80;;;17.07;;
9974;SDS011;5028;50.974;4.968;2023-07-02T03:40:00;26.53;;;16.93;;
9974;SDS011;5028;50.974;4.968;2023-07-02T03:42:30;29.50;;;17.60;;
9974;SDS011;5028;50.974;4.968;2023-07-02T03:45:00;27.60;;;17.50;;
9974;SDS011;5028;50.974;4.968;2023-07-02T03:47:29;32.57;;;17.37;;
9974;SDS011;5028;50.974;4.968;2023-07-02T03:49:58;29.13;;;17.77;;
9974;SDS011;5028;50.974;4.968;2023-07-02T03:52:27;27.27;;;17.53;;
9974;SDS011;5028;50.974;4.968;2023-07-02T03:54:57;30.77;;;17.40;;
9974;SDS011;5028;50.974;4.968;2023-07-02T03:57:26;28.40;;;17.63;;
9974;SDS011;5028;50.974;4.968;2023-07-02T03:59:55;27.57;;;18.07;;
9974;SDS011;5028;50.974;4.968;2023-07-02T04:02:23;31.43;;;18.83;;
9974;SDS011;5028;50.974;4.968;2023-07-02T04:04:52;26.83;;;17.53;;
9974;SDS011;5028;50.974;4.968;2023-07-02T04:07:21;31.93;;;18.40;;
9974;SDS011;5028;50.974;4.968;2023-07-02T04:09:50;28.00;;;18.10;;
9974;SDS011;5028;50.974;4.968;2023-07-02T04:12:20;27.97;;;18.23;;
9974;SDS011;5028;50.974;4.968;2023-07-02T04:14:48;32.63;;;18.70;;
9974;SDS011;5028;50.974;4.968;2023-07-02T04:17:17;30.20;;;17.67;;
9974;SDS011;5028;50.974;4.968;2023-07-02T04:19:46;26.50;;;17.90;;
9974;SDS011;5028;50.974;4.968;2023-07-02T04:22:15;26.37;;;17.00;;
9974;SDS011;5028;50.974;4.968;2023-07-02T04:24:44;26.53;;;18.17;;
9974;SDS011;5028;50.974;4.968;2023-07-02T04:27:21;27.67;;;17.70;;
9974;SDS011;5028;50.974;4.968;2023-07-02T04:30:10;31.37;;;18.20;;
9974;SDS011;5028;50.974;4.968;2023-07-02T04:32:40;28.10;;;17.67;;
9974;SDS011;5028;50.974;4.968;2023-07-02T04:35:09;27.20;;;18.23;;
9974;SDS011;5028;50.974;4.968;2023-07-02T04:37:38;30.43;;;19.27;;
9974;SDS011;5028;50.974;4.968;2023-07-02T04:40:07;28.50;;;19.03;;
9974;SDS011;5028;50.974;4.968;2023-07-02T04:42:38;30.23;;;19.13;;
9974;SDS011;5028;50.974;4.968;2023-07-02T04:45:14;30.50;;;19.03;;
9974;SDS011;5028;50.974;4.968;2023-07-02T04:47:44;27.70;;;18.57;;
9974;SDS011;5028;50.974;4.968;2023-07-02T04:50:13;34.40;;;19.40;;
9974;SDS011;5028;50.974;4.968;2023-07-02T04:52:42;30.47;;;18.73;;
9974;SDS011;5028;50.974;4.968;2023-07-02T04:55:11;27.90;;;18.23;;
9974;SDS011;5028;50.974;4.968;2023-07-02T04:57:41;30.47;;;18.53;;
9974;SDS011;5028;50.974;4.968;2023-07-02T05:00:11;32.07;;;19.70;;
9974;SDS011;5028;50.974;4.968;2023-07-02T05:02:40;30.87;;;19.57;;
9974;SDS011;5028;50.974;4.968;2023-07-02T05:05:09;31.67;;;19.73;;
9974;SDS011;5028;50.974;4.968;2023-07-02T05:07:39;38.40;;;21.70;;
9974;SDS011;5028;50.974;4.968;2023-07-02T05:10:08;31.60;;;20.23;;
9974;SDS011;5028;50.974;4.968;2023-07-02T05:12:38;32.97;;;19.97;;
9974;SDS011;5028;50.974;4.968;2023-07-02T05:15:09;30.77;;;20.30;;
9974;SDS011;5028;50.974;4.968;2023-07-02T05:17:38;31.63;;;20.53;;
9974;SDS011;5028;50.974;4.968;2023-07-02T05:20:08;35.07;;;20.00;;
9974;SDS011;5028;50.974;4.968;2023-07-02T05:22:38;35.53;;;20.73;;
9974;SDS011;5028;50.974;4.968;2023-07-02T05:25:07;33.17;;;19.23;;
9974;SDS011;5028;50.974;4.968;2023-07-02T05:27:36;30.00;;;20.13;;
9974;SDS011;5028;50.974;4.968;2023-07-02T05:30:05;34.67;;;20.43;;
9974;SDS011;5028;50.974;4.968;2023-07-02T05:32:37;30.97;;;19.53;;
9974;SDS011;5028;50.974;4.968;2023-07-02T05:35:07;33.07;;;19.80;;
9974;SDS011;5028;50.974;4.968;2023-07-02T05:37:36;33.80;;;19.37;;
9974;SDS011;5028;50.974;4.968;2023-07-02T05:40:05;31.87;;;19.30;;
9974;SDS011;5028;50.974;4.968;2023-07-02T05:42:34;29.97;;;19.83;;
9974;SDS011;5028;50.974;4.968;2023-07-02T05:45:04;31.60;;;20.70;;
9974;SDS011;5028;50.974;4.968;2023-07-02T05:47:34;29.73;;;19.30;;
9974;SDS011;5028;50.974;4.968;2023-07-02T05:50:03;32.63;;;20.47;;
9974;SDS011;5028;50.974;4.968;2023-07-02T05:52:33;34.40;;;19.43;;
9974;SDS011;5028;50.974;4.968;2023-07-02T05:55:02;31.97;;;19.73;;
9974;SDS011;5028;50.974;4.968;2023-07-02T05:57:31;30.67;;;19.00;;
9974;SDS011;5028;50.974;4.968;2023-07-02T06:00:00;30.23;;;19.73;;
9974;SDS011;5028;50.974;4.968;2023-07-02T06:02:29;32.77;;;19.87;;
9974;SDS011;5028;50.974;4.968;2023-07-02T06:04:59;29.83;;;19.57;;
9974;SDS011;5028;50.974;4.968;2023-07-02T06:07:28;31.50;;;20.03;;
9974;SDS011;5028;50.974;4.968;2023-07-02T06:09:57;30.27;;;19.03;;
9974;SDS011;5028;50.974;4.968;2023-07-02T06:12:25;33.47;;;19.93;;
9974;SDS011;5028;50.974;4.968;2023-07-02T06:14:54;31.13;;;18.53;;
9974;SDS011;5028;50.974;4.968;2023-07-02T06:17:23;27.27;;;18.23;;
9974;SDS011;5028;50.974;4.968;2023-07-02T06:19:52;30.00;;;19.00;;
9974;SDS011;5028;50.974;4.968;2023-07-02T06:22:22;30.03;;;18.50;;
9974;SDS011;5028;50.974;4.968;2023-07-02T06:24:51;31.93;;;19.57;;
9974;SDS011;5028;50.974;4.968;2023-07-02T06:27:19;33.90;;;20.03;;
9974;SDS011;5028;50.974;4.968;2023-07-02T06:29:48;30.40;;;19.37;;
9974;SDS011;5028;50.974;4.968;2023-07-02T06:32:18;32.60;;;19.53;;
9974;SDS011;5028;50.974;4.968;2023-07-02T06:34:47;26.30;;;18.23;;
9974;SDS011;5028;50.974;4.968;2023-07-02T06:37:15;29.33;;;17.83;;
9974;SDS011;5028;50.974;4.968;2023-07-02T06:39:46;29.80;;;17.43;;
9974;SDS011;5028;50.974;4.968;2023-07-02T06:42:14;25.83;;;17.10;;
9974;SDS011;5028;50.974;4.968;2023-07-02T06:44:43;27.97;;;17.60;;
9974;SDS011;5028;50.974;4.968;2023-07-02T06:47:12;30.73;;;17.73;;
9974;SDS011;5028;50.974;4.968;2023-07-02T06:49:40;30.37;;;17.57;;
9974;SDS011;5028;50.974;4.968;2023-07-02T06:52:09;29.60;;;17.13;;
9974;SDS011;5028;50.974;4.968;2023-07-02T06:54:38;29.80;;;17.70;;
9974;SDS011;5028;50.974;4.968;2023-07-02T06:57:10;31.60;;;17.27;;
9974;SDS011;5028;50.974;4.968;2023-07-02T06:59:38;29.07;;;16.67;;
9974;SDS011;5028;50.974;4.968;2023-07-02T07:02:07;27.17;;;17.00;;
9974;SDS011;5028;50.974;4.968;2023-07-02T07:04:36;24.93;;;16.97;;
9974;SDS011;5028;50.974;4.968;2023-07-02T07:07:05;29.17;;;17.30;;
9974;SDS011;5028;50.974;4.968;2023-07-02T07:09:35;25.37;;;16.10;;
9974;SDS011;5028;50.974;4.968;2023-07-02T07:12:04;28.33;;;17.67;;
9974;SDS011;5028;50.974;4.968;2023-07-02T07:14:35;24.53;;;15.83;;
9974;SDS011;5028;50.974;4.968;2023-07-02T07:17:04;27.93;;;16.03;;
9974;SDS011;5028;50.974;4.968;2023-07-02T07:19:32;26.43;;;16.80;;
9974;SDS011;5028;50.974;4.968;2023-07-02T07:22:01;27.67;;;16.53;;
9974;SDS011;5028;50.974;4.968;2023-07-02T07:24:29;26.17;;;16.67;;
9974;SDS011;5028;50.974;4.968;2023-07-02T07:26:58;28.80;;;16.33;;
9974;SDS011;5028;50.974;4.968;2023-07-02T07:29:26;26.10;;;16.57;;
9974;SDS011;5028;50.974;4.968;2023-07-02T07:32:08;24.93;;;14.80;;
9974;SDS011;5028;50.974;4.968;2023-07-02T07:34:37;27.10;;;16.00;;
9974;SDS011;5028;50.974;4.968;2023-07-02T07:37:06;25.37;;;16.30;;
9974;SDS011;5028;50.974;4.968;2023-07-02T07:39:35;26.30;;;16.20;;
9974;SDS011;5028;50.974;4.968;2023-07-02T07:42:05;22.80;;;14.73;;
9974;SDS011;5028;50.974;4.968;2023-07-02T07:44:34;25.77;;;15.27;;
9974;SDS011;5028;50.974;4.968;2023-07-02T07:47:03;21.80;;;14.10;;
9974;SDS011;5028;50.974;4.968;2023-07-02T07:49:34;26.83;;;14.93;;
9974;SDS011;5028;50.974;4.968;2023-07-02T07:52:02;22.37;;;13.73;;
9974;SDS011;5028;50.974;4.968;2023-07-02T07:54:33;21.97;;;13.40;;
9974;SDS011;5028;50.974;4.968;2023-07-02T07:57:03;22.47;;;14.13;;
9974;SDS011;5028;50.974;4.968;2023-07-02T07:59:32;23.87;;;14.20;;
9974;SDS011;5028;50.974;4.968;2023-07-02T08:02:01;19.07;;;12.90;;
9974;SDS011;5028;50.974;4.968;2023-07-02T08:04:30;20.33;;;11.87;;
9974;SDS011;5028;50.974;4.968;2023-07-02T08:07:00;15.67;;;11.10;;
9974;SDS011;5028;50.974;4.968;2023-07-02T08:09:30;17.93;;;11.10;;
9974;SDS011;5028;50.974;4.968;2023-07-02T08:11:59;15.80;;;9.93;;
9974;SDS011;5028;50.974;4.968;2023-07-02T08:14:29;16.30;;;9.77;;
9974;SDS011;5028;50.974;4.968;2023-07-02T08:16:58;13.97;;;9.67;;
9974;SDS011;5028;50.974;4.968;2023-07-02T08:19:27;17.37;;;10.70;;
9974;SDS011;5028;50.974;4.968;2023-07-02T08:21:56;17.37;;;10.47;;
9974;SDS011;5028;50.974;4.968;2023-07-02T08:24:26;18.73;;;10.00;;
9974;SDS011;5028;50.974;4.968;2023-07-02T08:26:54;12.83;;;8.73;;
9974;SDS011;5028;50.974;4.968;2023-07-02T08:29:23;14.03;;;8.33;;
9974;SDS011;5028;50.974;4.968;2023-07-02T08:31:51;13.23;;;8.23;;
9974;SDS011;5028;50.974;4.968;2023-07-02T08:34:20;14.27;;;7.83;;
9974;SDS011;5028;50.974;4.968;2023-07-02T08:36:49;12.77;;;7.80;;
9974;SDS011;5028;50.974;4.968;2023-07-02T08:39:18;12.20;;;8.00;;
9974;SDS011;5028;50.974;4.968;2023-07-02T08:41:48;14.17;;;8.00;;
9974;SDS011;5028;50.974;4.968;2023-07-02T08:44:19;12.43;;;7.10;;
9974;SDS011;5028;50.974;4.968;2023-07-02T08:46:49;14.93;;;7.67;;
9974;SDS011;5028;50.974;4.968;2023-07-02T08:49:19;12.10;;;7.47;;
9974;SDS011;5028;50.974;4.968;2023-07-02T08:51:48;12.87;;;7.50;;
9974;SDS011;5028;50.974;4.968;2023-07-02T08:54:17;12.53;;;7.17;;
9974;SDS011;5028;50.974;4.968;2023-07-02T08:56:47;12.70;;;7.27;;
9974;SDS011;5028;50.974;4.968;2023-07-02T08:59:16;11.20;;;6.30;;
9974;SDS011;5028;50.974;4.968;2023-07-02T09:01:44;10.30;;;6.07;;
9974;SDS011;5028;50.974;4.968;2023-07-02T09:04:14;12.47;;;7.10;;
9974;SDS011;5028;50.974;4.968;2023-07-02T09:06:44;16.07;;;7.57;;
9974;SDS011;5028;50.974;4.968;2023-07-02T09:09:13;11.07;;;6.43;;
9974;SDS011;5028;50.974;4.968;2023-07-02T09:11:49;10.53;;;6.63;;
9974;SDS011;5028;50.974;4.968;2023-07-02T09:14:25;14.83;;;6.90;;
9974;SDS011;5028;50.974;4.968;2023-07-02T09:17:01;10.87;;;6.33;;
9974;SDS011;5028;50.974;4.968;2023-07-02T09:19:31;9.90;;;6.77;;
9974;SDS011;5028;50.974;4.968;2023-07-02T09:22:00;10.17;;;6.67;;
9974;SDS011;5028;50.974;4.968;2023-07-02T09:24:30;11.30;;;6.77;;
9974;SDS011;5028;50.974;4.968;2023-07-02T09:27:02;11.23;;;6.43;;
9974;SDS011;5028;50.974;4.968;2023-07-02T09:29:31;11.37;;;6.40;;
9974;SDS011;5028;50.974;4.968;2023-07-02T09:32:02;10.47;;;6.70;;
9974;SDS011;5028;50.974;4.968;2023-07-02T09:34:37;11.47;;;6.27;;
9974;SDS011;5028;50.974;4.968;2023-07-02T09:37:08;9.73;;;6.83;;
9974;SDS011;5028;50.974;4.968;2023-07-02T09:39:37;10.87;;;6.47;;
9974;SDS011;5028;50.974;4.968;2023-07-02T09:42:08;9.90;;;6.20;;
9974;SDS011;5028;50.974;4.968;2023-07-02T09:44:38;13.40;;;6.37;;
9974;SDS011;5028;50.974;4.968;2023-07-02T09:47:09;11.57;;;6.83;;
9974;SDS011;5028;50.974;4.968;2023-07-02T09:49:41;13.73;;;6.70;;
9974;SDS011;5028;50.974;4.968;2023-07-02T09:52:13;12.80;;;7.00;;
9974;SDS011;5028;50.974;4.968;2023-07-02T09:54:42;15.27;;;7.57;;
9974;SDS011;5028;50.974;4.968;2023-07-02T09:57:15;13.97;;;7.37;;
9974;SDS011;5028;50.974;4.968;2023-07-02T09:59:44;13.10;;;7.87;;
9974;SDS011;5028;50.974;4.968;2023-07-02T10:02:22;13.13;;;7.07;;
9974;SDS011;5028;50.974;4.968;2023-07-02T10:04:51;11.80;;;6.77;;
9974;SDS011;5028;50.974;4.968;2023-07-02T10:07:28;15.47;;;7.63;;
9974;SDS011;5028;50.974;4.968;2023-07-02T10:09:58;12.23;;;7.07;;
9974;SDS011;5028;50.974;4.968;2023-07-02T10:12:29;12.57;;;7.63;;
9974;SDS011;5028;50.974;4.968;2023-07-02T10:14:59;11.03;;;7.43;;
9974;SDS011;5028;50.974;4.968;2023-07-02T10:17:28;12.57;;;7.23;;
9974;SDS011;5028;50.974;4.968;2023-07-02T10:19:58;13.60;;;8.00;;
9974;SDS011;5028;50.974;4.968;2023-07-02T10:22:41;14.93;;;8.30;;
9974;SDS011;5028;50.974;4.968;2023-07-02T10:25:12;13.00;;;8.03;;
9974;SDS011;5028;50.974;4.968;2023-07-02T10:27:53;12.97;;;8.30;;
9974;SDS011;5028;50.974;4.968;2023-07-02T10:30:30;16.47;;;8.80;;
9974;SDS011;5028;50.974;4.968;2023-07-02T10:33:09;11.57;;;8.00;;
9974;SDS011;5028;50.974;4.968;2023-07-02T10:35:38;12.80;;;7.70;;
9974;SDS011;5028;50.974;4.968;2023-07-02T10:38:13;14.17;;;8.73;;
9974;SDS011;5028;50.974;4.968;2023-07-02T10:40:42;13.40;;;8.37;;
9974;SDS011;5028;50.974;4.968;2023-07-02T10:43:14;13.43;;;7.97;;
9974;SDS011;5028;50.974;4.968;2023-07-02T10:45:56;15.57;;;8.27;;
9974;SDS011;5028;50.974;4.968;2023-07-02T10:48:27;12.40;;;8.00;;
9974;SDS011;5028;50.974;4.968;2023-07-02T10:50:56;10.67;;;7.47;;
9974;SDS011;5028;50.974;4.968;2023-07-02T10:53:25;14.03;;;8.17;;
9974;SDS011;5028;50.974;4.968;2023-07-02T10:55:54;13.27;;;8.10;;
9974;SDS011;5028;50.974;4.968;2023-07-02T10:58:26;16.13;;;8.73;;
9974;SDS011;5028;50.974;4.968;2023-07-02T11:00:56;15.37;;;7.70;;
9974;SDS011;5028;50.974;4.968;2023-07-02T11:03:25;15.43;;;8.20;;
9974;SDS011;5028;50.974;4.968;2023-07-02T11:05:54;13.73;;;8.20;;
9974;SDS011;5028;50.974;4.968;2023-07-02T11:08:23;15.03;;;8.30;;
9974;SDS011;5028;50.974;4.968;2023-07-02T11:11:04;12.73;;;8.50;;
9974;SDS011;5028;50.974;4.968;2023-07-02T11:13:43;14.03;;;8.90;;
9974;SDS011;5028;50.974;4.968;2023-07-02T11:16:20;13.40;;;8.77;;
9974;SDS011;5028;50.974;4.968;2023-07-02T11:18:53;14.37;;;8.70;;
9974;SDS011;5028;50.974;4.968;2023-07-02T11:21:22;15.87;;;8.50;;
9974;SDS011;5028;50.974;4.968;2023-07-02T11:23:50;15.57;;;8.63;;
9974;SDS011;5028;50.974;4.968;2023-07-02T11:26:36;14.20;;;8.63;;
9974;SDS011;5028;50.974;4.968;2023-07-02T11:29:10;15.53;;;8.17;;
9974;SDS011;5028;50.974;4.968;2023-07-02T11:31:39;17.17;;;8.63;;
9974;SDS011;5028;50.974;4.968;2023-07-02T11:34:11;15.93;;;8.60;;
9974;SDS011;5028;50.974;4.968;2023-07-02T11:36:44;12.97;;;7.80;;
9974;SDS011;5028;50.974;4.968;2023-07-02T11:39:13;13.10;;;8.30;;
9974;SDS011;5028;50.974;4.968;2023-07-02T11:41:43;13.27;;;8.07;;
9974;SDS011;5028;50.974;4.968;2023-07-02T11:44:16;14.27;;;7.80;;
9974;SDS011;5028;50.974;4.968;2023-07-02T11:46:45;14.57;;;8.40;;
9974;SDS011;5028;50.974;4.968;2023-07-02T11:49:15;16.20;;;8.43;;
9974;SDS011;5028;50.974;4.968;2023-07-02T11:51:43;14.90;;;8.33;;
9974;SDS011;5028;50.974;4.968;2023-07-02T11:54:15;13.37;;;7.90;;
9974;SDS011;5028;50.974;4.968;2023-07-02T11:56:45;14.90;;;7.87;;
9974;SDS011;5028;50.974;4.968;2023-07-02T11:59:15;11.00;;;7.33;;
9974;SDS011;5028;50.974;4.968;2023-07-02T12:01:44;12.83;;;7.53;;
9974;SDS011;5028;50.974;4.968;2023-07-02T12:04:13;11.40;;;7.50;;
9974;SDS011;5028;50.974;4.968;2023-07-02T12:06:43;13.43;;;7.53;;
9974;SDS011;5028;50.974;4.968;2023-07-02T12:09:13;12.80;;;7.73;;
9974;SDS011;5028;50.974;4.968;2023-07-02T12:11:42;12.20;;;7.70;;
9974;SDS011;5028;50.974;4.968;2023-07-02T12:14:12;12.93;;;7.57;;
9974;SDS011;5028;50.974;4.968;2023-07-02T12:16:42;12.37;;;7.83;;
9974;SDS011;5028;50.974;4.968;2023-07-02T12:19:11;12.00;;;8.03;;
9974;SDS011;5028;50.974;4.968;2023-07-02T12:21:39;13.97;;;8.20;;
9974;SDS011;5028;50.974;4.968;2023-07-02T12:24:08;13.27;;;8.17;;
9974;SDS011;5028;50.974;4.968;2023-07-02T12:26:38;16.07;;;7.80;;
9974;SDS011;5028;50.974;4.968;2023-07-02T12:29:07;11.97;;;7.23;;
9974;SDS011;5028;50.974;4.968;2023-07-02T12:31:36;12.17;;;8.17;;
9974;SDS011;5028;50.974;4.968;2023-07-02T12:34:06;13.37;;;7.80;;
9974;SDS011;5028;50.974;4.968;2023-07-02T12:36:35;14.70;;;8.40;;
9974;SDS011;5028;50.974;4.968;2023-07-02T12:39:03;13.20;;;8.33;;
9974;SDS011;5028;50.974;4.968;2023-07-02T12:41:33;13.70;;;7.50;;
9974;SDS011;5028;50.974;4.968;2023-07-02T12:44:02;13.03;;;8.10;;
9974;SDS011;5028;50.974;4.968;2023-07-02T12:46:32;13.37;;;7.97;;
9974;SDS011;5028;50.974;4.968;2023-07-02T12:49:00;13.70;;;7.63;;
9974;SDS011;5028;50.974;4.968;2023-07-02T12:51:31;12.63;;;7.70;;
9974;SDS011;5028;50.974;4.968;2023-07-02T12:54:00;14.97;;;8.40;;
9974;SDS011;5028;50.974;4.968;2023-07-02T12:56:29;11.93;;;7.50;;
9974;SDS011;5028;50.974;4.968;2023-07-02T12:58:57;13.47;;;8.00;;
9974;SDS011;5028;50.974;4.968;2023-07-02T13:01:26;13.70;;;7.17;;
9974;SDS011;5028;50.974;4.968;2023-07-02T13:03:55;10.33;;;6.90;;
9974;SDS011;5028;50.974;4.968;2023-07-02T13:06:24;14.30;;;7.87;;
9974;SDS011;5028;50.974;4.968;2023-07-02T13:08:55;14.60;;;7.57;;
9974;SDS011;5028;50.974;4.968;2023-07-02T13:11:24;15.53;;;7.97;;
9974;SDS011;5028;50.974;4.968;2023-07-02T13:13:53;13.63;;;7.97;;
9974;SDS011;5028;50.974;4.968;2023-07-02T13:16:22;13.67;;;7.23;;
9974;SDS011;5028;50.974;4.968;2023-07-02T13:18:51;13.33;;;7.63;;
9974;SDS011;5028;50.974;4.968;2023-07-02T13:21:21;13.57;;;7.77;;
9974;SDS011;5028;50.974;4.968;2023-07-02T13:24:05;11.77;;;7.63;;
9974;SDS011;5028;50.974;4.968;2023-07-02T13:26:34;11.20;;;7.50;;
9974;SDS011;5028;50.974;4.968;2023-07-02T13:29:02;11.57;;;7.63;;
9974;SDS011;5028;50.974;4.968;2023-07-02T13:31:31;13.10;;;7.60;;
9974;SDS011;5028;50.974;4.968;2023-07-02T13:34:00;12.30;;;7.80;;
9974;SDS011;5028;50.974;4.968;2023-07-02T13:36:29;12.97;;;7.83;;
9974;SDS011;5028;50.974;4.968;2023-07-02T13:38:57;13.80;;;8.40;;
9974;SDS011;5028;50.974;4.968;2023-07-02T13:41:30;11.50;;;7.47;;
9974;SDS011;5028;50.974;4.968;2023-07-02T13:44:00;12.00;;;7.70;;
9974;SDS011;5028;50.974;4.968;2023-07-02T13:46:28;11.83;;;7.60;;
9974;SDS011;5028;50.974;4.968;2023-07-02T13:48:58;13.00;;;7.13;;
9974;SDS011;5028;50.974;4.968;2023-07-02T13:51:26;10.87;;;7.57;;
9974;SDS011;5028;50.974;4.968;2023-07-02T13:53:55;11.43;;;7.37;;
9974;SDS011;5028;50.974;4.968;2023-07-02T13:56:24;11.60;;;7.20;;
9974;SDS011;5028;50.974;4.968;2023-07-02T13:59:01;11.13;;;6.77;;
9974;SDS011;5028;50.974;4.968;2023-07-02T14:01:31;11.03;;;7.13;;
9974;SDS011;5028;50.974;4.968;2023-07-02T14:04:00;12.70;;;7.63;;
9974;SDS011;5028;50.974;4.968;2023-07-02T14:06:29;11.10;;;7.03;;
9974;SDS011;5028;50.974;4.968;2023-07-02T14:08:58;11.43;;;6.67;;
9974;SDS011;5028;50.974;4.968;2023-07-02T14:11:27;12.60;;;7.23;;
9974;SDS011;5028;50.974;4.968;2023-07-02T14:13:56;12.20;;;7.13;;
9974;SDS011;5028;50.974;4.968;2023-07-02T14:16:27;11.43;;;7.00;;
9974;SDS011;5028;50.974;4.968;2023-07-02T14:18:55;13.10;;;7.33;;
9974;SDS011;5028;50.974;4.968;2023-07-02T14:21:24;12.17;;;7.77;;
9974;SDS011;5028;50.974;4.968;2023-07-02T14:23:53;11.47;;;7.10;;
9974;SDS011;5028;50.974;4.968;2023-07-02T14:26:22;11.27;;;6.77;;
9974;SDS011;5028;50.974;4.968;2023-07-02T14:28:54;11.07;;;6.80;;
9974;SDS011;5028;50.974;4.968;2023-07-02T14:31:22;11.83;;;6.67;;
9974;SDS011;5028;50.974;4.968;2023-07-02T14:33:53;10.07;;;7.03;;
9974;SDS011;5028;50.974;4.968;2023-07-02T14:36:23;11.00;;;6.77;;
9974;SDS011;5028;50.974;4.968;2023-07-02T14:38:52;11.57;;;6.43;;
9974;SDS011;5028;50.974;4.968;2023-07-02T14:41:20;11.87;;;6.37;;
9974;SDS011;5028;50.974;4.968;2023-07-02T14:43:49;11.67;;;6.70;;
9974;SDS011;5028;50.974;4.968;2023-07-02T14:46:18;10.70;;;6.73;;
9974;SDS011;5028;50.974;4.968;2023-07-02T14:48:48;11.37;;;6.90;;
9974;SDS011;5028;50.974;4.968;2023-07-02T14:51:19;12.33;;;6.73;;
9974;SDS011;5028;50.974;4.968;2023-07-02T14:53:49;11.13;;;7.20;;
9974;SDS011;5028;50.974;4.968;2023-07-02T14:56:18;10.40;;;6.57;;
9974;SDS011;5028;50.974;4.968;2023-07-02T14:58:46;12.30;;;6.57;;
9974;SDS011;5028;50.974;4.968;2023-07-02T15:01:18;11.07;;;7.17;;
9974;SDS011;5028;50.974;4.968;2023-07-02T15:03:47;10.27;;;6.93;;
9974;SDS011;5028;50.974;4.968;2023-07-02T15:06:17;11.30;;;7.00;;
9974;SDS011;5028;50.974;4.968;2023-07-02T15:08:47;12.37;;;7.37;;